sensor_id;sensor_type;location;lat;lon;timestamp;P1;durP1;ratioP1;P2;durP2;ratioP2
33148;SDS011;19506;51.040;3.856;2023-08-06T06:05:37;1.30;;;1.23;;
33148;SDS011;19506;51.040;3.856;2023-08-06T06:08:04;2.22;;;1.33;;
33148;SDS011;19506;51.040;3.856;2023-08-06T06:10:29;4.28;;;1.60;;
33148;SDS011;19506;51.040;3.856;2023-08-06T06:12:55;5.00;;;1.67;;
33148;SDS011;19506;51.040;3.856;2023-08-06T06:15:21;5.50;;;2.08;;
33148;SDS011;19506;51.040;3.856;2023-08-06T06:17:47;9.07;;;2.00;;
33148;SDS011;19506;51.040;3.856;2023-08-06T06:20:12;3.58;;;1.92;;
33148;SDS011;19506;51.040;3.856;2023-08-06T06:22:38;5.38;;;2.42;;
33148;SDS011;19506;51.040;3.856;2023-08-06T06:25:04;3.67;;;2.00;;
33148;SDS011;19506;51.040;3.856;2023-08-06T06:27:33;6.72;;;1.85;;
33148;SDS011;19506;51.040;3.856;2023-08-06T06:29:58;5.57;;;1.77;;
33148;SDS011;19506;51.040;3.856;2023-08-06T06:32:25;10.52;;;1.95;;
33148;SDS011;19506;51.040;3.856;2023-08-06T06:34:50;10.02;;;2.35;;
33148;SDS011;19506;51.040;3.856;2023-08-06T06:37:16;9.02;;;2.28;;
33148;SDS011;19506;51.040;3.856;2023-08-06T06:39:41;4.03;;;1.88;;
33148;SDS011;19506;51.040;3.856;2023-08-06T06:42:07;6.68;;;2.13;;
33148;SDS011;19506;51.040;3.856;2023-08-06T06:44:33;10.23;;;2.22;;
33148;SDS011;19506;51.040;3.856;2023-08-06T06:46:58;10.02;;;2.13;;
33148;SDS011;19506;51.040;3.856;2023-08-06T06:49:24;8.40;;;2.53;;
33148;SDS011;19506;51.040;3.856;2023-08-06T06:51:50;13.40;;;2.25;;
33148;SDS011;19506;51.040;3.856;2023-08-06T06:54:15;9.63;;;2.67;;
33148;SDS011;19506;51.040;3.856;2023-08-06T06:56:41;8.57;;;1.88;;
33148;SDS011;19506;51.040;3.856;2023-08-06T06:59:07;12.38;;;2.47;;
33148;SDS011;19506;51.040;3.856;2023-08-06T07:01:32;13.18;;;2.60;;
33148;SDS011;19506;51.040;3.856;2023-08-06T07:03:58;4.55;;;2.50;;
33148;SDS011;19506;51.040;3.856;2023-08-06T07:06:24;17.35;;;2.42;;
33148;SDS011;19506;51.040;3.856;2023-08-06T07:08:49;10.10;;;2.10;;
33148;SDS011;19506;51.040;3.856;2023-08-06T07:11:15;8.35;;;2.28;;
33148;SDS011;19506;51.040;3.856;2023-08-06T07:13:41;16.05;;;2.58;;
33148;SDS011;19506;51.040;3.856;2023-08-06T07:16:06;15.73;;;2.33;;
33148;SDS011;19506;51.040;3.856;2023-08-06T07:18:32;12.85;;;2.58;;
33148;SDS011;19506;51.040;3.856;2023-08-06T07:20:57;3.90;;;1.73;;
33148;SDS011;19506;51.040;3.856;2023-08-06T07:23:24;8.38;;;2.03;;
33148;SDS011;19506;51.040;3.856;2023-08-06T07:25:50;12.23;;;2.47;;
33148;SDS011;19506;51.040;3.856;2023-08-06T07:28:16;6.78;;;1.92;;
33148;SDS011;19506;51.040;3.856;2023-08-06T07:30:42;7.90;;;2.05;;
33148;SDS011;19506;51.040;3.856;2023-08-06T07:33:09;8.13;;;1.67;;
33148;SDS011;19506;51.040;3.856;2023-08-06T07:35:35;5.10;;;2.10;;
33148;SDS011;19506;51.040;3.856;2023-08-06T07:38:01;5.65;;;2.13;;
33148;SDS011;19506;51.040;3.856;2023-08-06T07:40:27;8.07;;;1.80;;
33148;SDS011;19506;51.040;3.856;2023-08-06T07:42:53;5.35;;;1.75;;
33148;SDS011;19506;51.040;3.856;2023-08-06T07:45:19;11.48;;;2.60;;
33148;SDS011;19506;51.040;3.856;2023-08-06T07:47:45;13.48;;;2.53;;
33148;SDS011;19506;51.040;3.856;2023-08-06T07:50:11;8.10;;;1.90;;
33148;SDS011;19506;51.040;3.856;2023-08-06T07:52:37;7.55;;;2.08;;
33148;SDS011;19506;51.040;3.856;2023-08-06T07:55:02;6.05;;;2.03;;
33148;SDS011;19506;51.040;3.856;2023-08-06T07:57:33;12.00;;;2.70;;
33148;SDS011;19506;51.040;3.856;2023-08-06T07:59:59;8.50;;;3.38;;
33148;SDS011;19506;51.040;3.856;2023-08-06T08:02:25;16.35;;;2.58;;
33148;SDS011;19506;51.040;3.856;2023-08-06T08:04:51;7.45;;;1.88;;
33148;SDS011;19506;51.040;3.856;2023-08-06T08:07:17;10.73;;;2.30;;
33148;SDS011;19506;51.040;3.856;2023-08-06T08:09:43;10.23;;;2.10;;
33148;SDS011;19506;51.040;3.856;2023-08-06T08:12:09;11.60;;;2.38;;
33148;SDS011;19506;51.040;3.856;2023-08-06T08:14:34;12.80;;;2.00;;
33148;SDS011;19506;51.040;3.856;2023-08-06T08:17:02;6.63;;;2.08;;
33148;SDS011;19506;51.040;3.856;2023-08-06T08:19:28;9.07;;;2.20;;
33148;SDS011;19506;51.040;3.856;2023-08-06T08:21:54;11.80;;;2.03;;
33148;SDS011;19506;51.040;3.856;2023-08-06T08:24:20;12.38;;;2.42;;
33148;SDS011;19506;51.040;3.856;2023-08-06T08:26:49;17.20;;;2.15;;
33148;SDS011;19506;51.040;3.856;2023-08-06T08:29:15;14.95;;;2.22;;
33148;SDS011;19506;51.040;3.856;2023-08-06T08:31:41;9.02;;;3.08;;
33148;SDS011;19506;51.040;3.856;2023-08-06T08:34:06;9.48;;;2.40;;
33148;SDS011;19506;51.040;3.856;2023-08-06T08:36:32;16.15;;;2.72;;
33148;SDS011;19506;51.040;3.856;2023-08-06T08:38:57;8.68;;;2.63;;
33148;SDS011;19506;51.040;3.856;2023-08-06T08:41:23;8.65;;;2.05;;
33148;SDS011;19506;51.040;3.856;2023-08-06T08:43:50;8.68;;;2.25;;
33148;SDS011;19506;51.040;3.856;2023-08-06T08:46:19;7.25;;;2.15;;
33148;SDS011;19506;51.040;3.856;2023-08-06T08:48:45;6.47;;;1.73;;
33148;SDS011;19506;51.040;3.856;2023-08-06T08:51:11;7.97;;;2.55;;
33148;SDS011;19506;51.040;3.856;2023-08-06T08:53:38;13.23;;;2.40;;
33148;SDS011;19506;51.040;3.856;2023-08-06T08:56:04;8.00;;;1.77;;
33148;SDS011;19506;51.040;3.856;2023-08-06T08:58:30;10.73;;;3.90;;
33148;SDS011;19506;51.040;3.856;2023-08-06T09:00:56;13.65;;;5.72;;
33148;SDS011;19506;51.040;3.856;2023-08-06T09:03:22;29.70;;;8.60;;
33148;SDS011;19506;51.040;3.856;2023-08-06T09:05:49;32.15;;;11.82;;
33148;SDS011;19506;51.040;3.856;2023-08-06T09:08:18;33.55;;;14.05;;
33148;SDS011;19506;51.040;3.856;2023-08-06T09:10:47;40.42;;;16.15;;
33148;SDS011;19506;51.040;3.856;2023-08-06T09:13:14;30.90;;;14.15;;
33148;SDS011;19506;51.040;3.856;2023-08-06T09:15:40;39.45;;;15.88;;
33148;SDS011;19506;51.040;3.856;2023-08-06T09:18:09;26.15;;;12.88;;
33148;SDS011;19506;51.040;3.856;2023-08-06T09:20:37;25.52;;;11.82;;
33148;SDS011;19506;51.040;3.856;2023-08-06T09:23:09;29.08;;;12.45;;
33148;SDS011;19506;51.040;3.856;2023-08-06T09:25:37;35.05;;;15.68;;
33148;SDS011;19506;51.040;3.856;2023-08-06T09:28:06;48.33;;;22.00;;
33148;SDS011;19506;51.040;3.856;2023-08-06T09:30:33;46.63;;;20.40;;
33148;SDS011;19506;51.040;3.856;2023-08-06T09:33:01;48.67;;;22.33;;
33148;SDS011;19506;51.040;3.856;2023-08-06T09:35:30;53.50;;;24.55;;
33148;SDS011;19506;51.040;3.856;2023-08-06T09:38:09;51.17;;;25.10;;
33148;SDS011;19506;51.040;3.856;2023-08-06T09:40:36;61.03;;;29.00;;
33148;SDS011;19506;51.040;3.856;2023-08-06T09:43:02;48.10;;;22.70;;
33148;SDS011;19506;51.040;3.856;2023-08-06T09:45:30;48.35;;;23.25;;
33148;SDS011;19506;51.040;3.856;2023-08-06T09:48:03;36.97;;;19.27;;
33148;SDS011;19506;51.040;3.856;2023-08-06T09:50:30;52.20;;;24.52;;
33148;SDS011;19506;51.040;3.856;2023-08-06T09:52:59;54.08;;;22.73;;
33148;SDS011;19506;51.040;3.856;2023-08-06T09:55:26;42.08;;;20.20;;
33148;SDS011;19506;51.040;3.856;2023-08-06T09:57:52;28.55;;;13.95;;
33148;SDS011;19506;51.040;3.856;2023-08-06T10:00:18;42.65;;;18.20;;
33148;SDS011;19506;51.040;3.856;2023-08-06T10:02:48;29.23;;;14.30;;
33148;SDS011;19506;51.040;3.856;2023-08-06T10:05:16;28.92;;;13.77;;
33148;SDS011;19506;51.040;3.856;2023-08-06T10:07:43;41.28;;;16.85;;
33148;SDS011;19506;51.040;3.856;2023-08-06T10:10:10;34.80;;;13.23;;
33148;SDS011;19506;51.040;3.856;2023-08-06T10:12:37;27.33;;;12.57;;
33148;SDS011;19506;51.040;3.856;2023-08-06T10:15:10;25.33;;;9.27;;
33148;SDS011;19506;51.040;3.856;2023-08-06T10:17:37;26.77;;;10.15;;
33148;SDS011;19506;51.040;3.856;2023-08-06T10:20:08;26.83;;;11.48;;
33148;SDS011;19506;51.040;3.856;2023-08-06T10:22:34;17.83;;;7.90;;
33148;SDS011;19506;51.040;3.856;2023-08-06T10:25:01;40.90;;;10.02;;
33148;SDS011;19506;51.040;3.856;2023-08-06T10:27:34;24.48;;;8.23;;
33148;SDS011;19506;51.040;3.856;2023-08-06T10:32:49;22.58;;;8.02;;
33148;SDS011;19506;51.040;3.856;2023-08-06T10:35:29;32.45;;;14.50;;
33148;SDS011;19506;51.040;3.856;2023-08-06T10:37:57;52.22;;;22.85;;
33148;SDS011;19506;51.040;3.856;2023-08-06T10:40:39;73.35;;;32.30;;
33148;SDS011;19506;51.040;3.856;2023-08-06T10:43:06;121.13;;;54.05;;
33148;SDS011;19506;51.040;3.856;2023-08-06T10:45:34;116.00;;;55.45;;
33148;SDS011;19506;51.040;3.856;2023-08-06T10:48:01;115.53;;;52.30;;
33148;SDS011;19506;51.040;3.856;2023-08-06T10:50:26;99.70;;;47.38;;
33148;SDS011;19506;51.040;3.856;2023-08-06T10:52:52;115.38;;;53.83;;
33148;SDS011;19506;51.040;3.856;2023-08-06T10:55:25;82.63;;;40.15;;
33148;SDS011;19506;51.040;3.856;2023-08-06T10:57:52;77.32;;;33.13;;
33148;SDS011;19506;51.040;3.856;2023-08-06T11:00:20;88.90;;;42.53;;
33148;SDS011;19506;51.040;3.856;2023-08-06T11:02:47;92.40;;;43.00;;
33148;SDS011;19506;51.040;3.856;2023-08-06T11:05:14;68.82;;;30.33;;
33148;SDS011;19506;51.040;3.856;2023-08-06T11:07:40;57.97;;;24.88;;
33148;SDS011;19506;51.040;3.856;2023-08-06T11:10:09;65.78;;;27.05;;
33148;SDS011;19506;51.040;3.856;2023-08-06T11:12:36;66.75;;;30.40;;
33148;SDS011;19506;51.040;3.856;2023-08-06T11:15:02;64.18;;;28.42;;
33148;SDS011;19506;51.040;3.856;2023-08-06T11:17:29;69.80;;;35.47;;
33148;SDS011;19506;51.040;3.856;2023-08-06T11:19:55;73.43;;;36.15;;
33148;SDS011;19506;51.040;3.856;2023-08-06T11:22:24;76.55;;;36.97;;
33148;SDS011;19506;51.040;3.856;2023-08-06T11:24:50;91.13;;;39.50;;
33148;SDS011;19506;51.040;3.856;2023-08-06T11:27:16;81.55;;;36.63;;
33148;SDS011;19506;51.040;3.856;2023-08-06T11:29:42;79.70;;;36.67;;
33148;SDS011;19506;51.040;3.856;2023-08-06T11:32:08;84.22;;;36.17;;
33148;SDS011;19506;51.040;3.856;2023-08-06T11:34:35;74.90;;;37.72;;
33148;SDS011;19506;51.040;3.856;2023-08-06T11:37:04;85.93;;;35.53;;
33148;SDS011;19506;51.040;3.856;2023-08-06T11:39:31;73.03;;;35.30;;
33148;SDS011;19506;51.040;3.856;2023-08-06T11:41:58;75.60;;;36.95;;
33148;SDS011;19506;51.040;3.856;2023-08-06T11:44:29;85.60;;;37.15;;
33148;SDS011;19506;51.040;3.856;2023-08-06T11:46:59;67.38;;;35.03;;
33148;SDS011;19506;51.040;3.856;2023-08-06T11:49:39;77.65;;;34.78;;
33148;SDS011;19506;51.040;3.856;2023-08-06T11:52:21;67.95;;;33.30;;
33148;SDS011;19506;51.040;3.856;2023-08-06T11:57:36;82.32;;;35.83;;
33148;SDS011;19506;51.040;3.856;2023-08-06T12:00:06;70.00;;;33.95;;
33148;SDS011;19506;51.040;3.856;2023-08-06T12:02:34;73.15;;;33.60;;
33148;SDS011;19506;51.040;3.856;2023-08-06T12:05:12;78.07;;;34.50;;
33148;SDS011;19506;51.040;3.856;2023-08-06T12:07:42;72.15;;;33.13;;
33148;SDS011;19506;51.040;3.856;2023-08-06T12:10:09;69.75;;;32.15;;
33148;SDS011;19506;51.040;3.856;2023-08-06T12:12:35;62.90;;;29.02;;
33148;SDS011;19506;51.040;3.856;2023-08-06T12:15:02;68.63;;;30.25;;
33148;SDS011;19506;51.040;3.856;2023-08-06T12:17:28;73.03;;;32.33;;
33148;SDS011;19506;51.040;3.856;2023-08-06T12:19:54;71.13;;;32.00;;
33148;SDS011;19506;51.040;3.856;2023-08-06T12:22:20;64.85;;;31.48;;
33148;SDS011;19506;51.040;3.856;2023-08-06T12:24:46;71.75;;;30.90;;
33148;SDS011;19506;51.040;3.856;2023-08-06T12:27:12;65.47;;;30.35;;
33148;SDS011;19506;51.040;3.856;2023-08-06T12:29:41;63.83;;;28.70;;
33148;SDS011;19506;51.040;3.856;2023-08-06T12:32:12;63.42;;;29.50;;
33148;SDS011;19506;51.040;3.856;2023-08-06T12:34:39;57.67;;;27.05;;
33148;SDS011;19506;51.040;3.856;2023-08-06T12:37:05;66.68;;;28.85;;
33148;SDS011;19506;51.040;3.856;2023-08-06T12:39:35;62.25;;;27.52;;
33148;SDS011;19506;51.040;3.856;2023-08-06T12:42:01;60.47;;;28.02;;
33148;SDS011;19506;51.040;3.856;2023-08-06T12:44:27;59.90;;;27.35;;
33148;SDS011;19506;51.040;3.856;2023-08-06T12:46:53;58.47;;;27.55;;
33148;SDS011;19506;51.040;3.856;2023-08-06T12:49:19;56.53;;;27.27;;
33148;SDS011;19506;51.040;3.856;2023-08-06T12:51:48;55.92;;;26.90;;
33148;SDS011;19506;51.040;3.856;2023-08-06T12:54:15;55.55;;;27.15;;
33148;SDS011;19506;51.040;3.856;2023-08-06T12:56:42;57.03;;;26.23;;
33148;SDS011;19506;51.040;3.856;2023-08-06T12:59:08;66.35;;;26.63;;
33148;SDS011;19506;51.040;3.856;2023-08-06T13:01:33;60.13;;;26.58;;
33148;SDS011;19506;51.040;3.856;2023-08-06T13:03:59;48.08;;;23.90;;
33148;SDS011;19506;51.040;3.856;2023-08-06T13:06:25;52.58;;;25.35;;
33148;SDS011;19506;51.040;3.856;2023-08-06T13:08:51;64.55;;;24.58;;
33148;SDS011;19506;51.040;3.856;2023-08-06T13:11:16;51.20;;;23.40;;
33148;SDS011;19506;51.040;3.856;2023-08-06T13:13:44;49.03;;;24.55;;
33148;SDS011;19506;51.040;3.856;2023-08-06T13:16:09;46.70;;;23.05;;
33148;SDS011;19506;51.040;3.856;2023-08-06T13:18:35;43.55;;;23.20;;
33148;SDS011;19506;51.040;3.856;2023-08-06T13:21:01;46.17;;;23.65;;
33148;SDS011;19506;51.040;3.856;2023-08-06T13:23:26;49.05;;;23.70;;
33148;SDS011;19506;51.040;3.856;2023-08-06T13:25:52;52.60;;;24.27;;
33148;SDS011;19506;51.040;3.856;2023-08-06T13:28:18;48.35;;;22.83;;
33148;SDS011;19506;51.040;3.856;2023-08-06T13:30:44;46.38;;;22.75;;
33148;SDS011;19506;51.040;3.856;2023-08-06T13:33:10;42.90;;;20.65;;
33148;SDS011;19506;51.040;3.856;2023-08-06T13:35:37;42.40;;;19.98;;
33148;SDS011;19506;51.040;3.856;2023-08-06T13:38:03;43.78;;;20.10;;
33148;SDS011;19506;51.040;3.856;2023-08-06T13:40:29;43.05;;;20.67;;
33148;SDS011;19506;51.040;3.856;2023-08-06T13:42:57;48.30;;;19.70;;
33148;SDS011;19506;51.040;3.856;2023-08-06T13:45:23;42.60;;;21.15;;
33148;SDS011;19506;51.040;3.856;2023-08-06T13:47:49;40.90;;;20.45;;
33148;SDS011;19506;51.040;3.856;2023-08-06T13:50:14;42.17;;;19.33;;
33148;SDS011;19506;51.040;3.856;2023-08-06T13:52:40;39.63;;;19.88;;
33148;SDS011;19506;51.040;3.856;2023-08-06T13:55:06;45.00;;;19.85;;
33148;SDS011;19506;51.040;3.856;2023-08-06T13:57:32;36.25;;;19.83;;
33148;SDS011;19506;51.040;3.856;2023-08-06T13:59:59;37.45;;;19.30;;
33148;SDS011;19506;51.040;3.856;2023-08-06T14:02:25;36.20;;;18.40;;
33148;SDS011;19506;51.040;3.856;2023-08-06T14:04:52;40.00;;;17.30;;
33148;SDS011;19506;51.040;3.856;2023-08-06T14:07:18;37.25;;;18.40;;
33148;SDS011;19506;51.040;3.856;2023-08-06T14:09:43;40.55;;;18.92;;
33148;SDS011;19506;51.040;3.856;2023-08-06T14:12:09;33.10;;;16.92;;
33148;SDS011;19506;51.040;3.856;2023-08-06T14:14:35;37.70;;;17.75;;
33148;SDS011;19506;51.040;3.856;2023-08-06T14:17:01;35.45;;;16.55;;
33148;SDS011;19506;51.040;3.856;2023-08-06T14:19:27;29.55;;;16.90;;
33148;SDS011;19506;51.040;3.856;2023-08-06T14:21:52;32.55;;;15.95;;
33148;SDS011;19506;51.040;3.856;2023-08-06T14:24:18;36.38;;;17.05;;
33148;SDS011;19506;51.040;3.856;2023-08-06T14:26:44;29.27;;;16.50;;
33148;SDS011;19506;51.040;3.856;2023-08-06T14:29:10;31.23;;;15.40;;
33148;SDS011;19506;51.040;3.856;2023-08-06T14:31:35;35.70;;;15.95;;
33148;SDS011;19506;51.040;3.856;2023-08-06T14:34:01;29.73;;;14.45;;
33148;SDS011;19506;51.040;3.856;2023-08-06T14:36:27;29.58;;;15.45;;
33148;SDS011;19506;51.040;3.856;2023-08-06T14:38:52;40.10;;;15.07;;
33148;SDS011;19506;51.040;3.856;2023-08-06T14:41:18;27.88;;;16.42;;
33148;SDS011;19506;51.040;3.856;2023-08-06T14:43:43;32.08;;;15.38;;
33148;SDS011;19506;51.040;3.856;2023-08-06T14:46:09;35.67;;;15.88;;
33148;SDS011;19506;51.040;3.856;2023-08-06T14:48:35;30.50;;;15.05;;
33148;SDS011;19506;51.040;3.856;2023-08-06T14:51:00;33.20;;;13.85;;
33148;SDS011;19506;51.040;3.856;2023-08-06T14:53:26;30.77;;;13.80;;
33148;SDS011;19506;51.040;3.856;2023-08-06T14:55:52;27.40;;;14.63;;
33148;SDS011;19506;51.040;3.856;2023-08-06T14:58:19;26.50;;;13.10;;
33148;SDS011;19506;51.040;3.856;2023-08-06T15:00:45;24.27;;;12.70;;
33148;SDS011;19506;51.040;3.856;2023-08-06T15:03:11;34.22;;;14.15;;
33148;SDS011;19506;51.040;3.856;2023-08-06T15:05:36;24.40;;;12.43;;
33148;SDS011;19506;51.040;3.856;2023-08-06T15:08:02;32.30;;;13.68;;
33148;SDS011;19506;51.040;3.856;2023-08-06T15:10:28;24.50;;;12.98;;
33148;SDS011;19506;51.040;3.856;2023-08-06T15:12:53;24.77;;;11.77;;
33148;SDS011;19506;51.040;3.856;2023-08-06T15:15:19;25.55;;;11.63;;
33148;SDS011;19506;51.040;3.856;2023-08-06T15:17:47;27.45;;;13.18;;
33148;SDS011;19506;51.040;3.856;2023-08-06T15:20:12;28.65;;;12.10;;
33148;SDS011;19506;51.040;3.856;2023-08-06T15:22:38;28.30;;;11.70;;
33148;SDS011;19506;51.040;3.856;2023-08-06T15:25:04;22.83;;;11.55;;
33148;SDS011;19506;51.040;3.856;2023-08-06T15:27:30;22.98;;;11.70;;
33148;SDS011;19506;51.040;3.856;2023-08-06T15:29:57;21.02;;;11.38;;
33148;SDS011;19506;51.040;3.856;2023-08-06T15:32:23;27.35;;;12.60;;
33148;SDS011;19506;51.040;3.856;2023-08-06T15:34:49;23.80;;;11.52;;
33148;SDS011;19506;51.040;3.856;2023-08-06T15:37:15;19.67;;;11.18;;
33148;SDS011;19506;51.040;3.856;2023-08-06T15:39:41;22.45;;;10.23;;
33148;SDS011;19506;51.040;3.856;2023-08-06T15:42:07;32.85;;;10.68;;
33148;SDS011;19506;51.040;3.856;2023-08-06T15:44:32;25.00;;;10.38;;
33148;SDS011;19506;51.040;3.856;2023-08-06T15:46:58;22.60;;;10.02;;
33148;SDS011;19506;51.040;3.856;2023-08-06T15:49:24;19.38;;;10.15;;
33148;SDS011;19506;51.040;3.856;2023-08-06T15:51:49;22.08;;;9.40;;
33148;SDS011;19506;51.040;3.856;2023-08-06T15:54:15;22.05;;;10.38;;
33148;SDS011;19506;51.040;3.856;2023-08-06T15:56:41;19.27;;;10.27;;
33148;SDS011;19506;51.040;3.856;2023-08-06T16:01:55;19.83;;;9.88;;
33148;SDS011;19506;51.040;3.856;2023-08-06T16:04:27;16.73;;;9.25;;
33148;SDS011;19506;51.040;3.856;2023-08-06T16:06:53;18.67;;;8.55;;
33148;SDS011;19506;51.040;3.856;2023-08-06T16:09:19;23.42;;;9.43;;
33148;SDS011;19506;51.040;3.856;2023-08-06T16:11:49;20.73;;;10.18;;
33148;SDS011;19506;51.040;3.856;2023-08-06T16:14:18;20.67;;;9.82;;
33148;SDS011;19506;51.040;3.856;2023-08-06T16:16:45;22.77;;;9.70;;
33148;SDS011;19506;51.040;3.856;2023-08-06T16:19:11;24.38;;;9.82;;
33148;SDS011;19506;51.040;3.856;2023-08-06T16:21:37;20.23;;;8.48;;
33148;SDS011;19506;51.040;3.856;2023-08-06T16:24:03;15.77;;;8.55;;
33148;SDS011;19506;51.040;3.856;2023-08-06T16:26:30;19.48;;;8.57;;
33148;SDS011;19506;51.040;3.856;2023-08-06T16:28:56;18.58;;;8.27;;
33148;SDS011;19506;51.040;3.856;2023-08-06T16:31:22;16.65;;;7.43;;
33148;SDS011;19506;51.040;3.856;2023-08-06T16:33:48;14.18;;;8.30;;
33148;SDS011;19506;51.040;3.856;2023-08-06T16:36:14;16.35;;;8.55;;
33148;SDS011;19506;51.040;3.856;2023-08-06T16:38:40;16.85;;;7.78;;
33148;SDS011;19506;51.040;3.856;2023-08-06T16:41:06;22.98;;;8.65;;
33148;SDS011;19506;51.040;3.856;2023-08-06T16:43:32;16.27;;;8.02;;
33148;SDS011;19506;51.040;3.856;2023-08-06T16:45:57;16.02;;;8.23;;
33148;SDS011;19506;51.040;3.856;2023-08-06T16:48:23;19.77;;;8.82;;
33148;SDS011;19506;51.040;3.856;2023-08-06T16:50:55;17.83;;;7.70;;
33148;SDS011;19506;51.040;3.856;2023-08-06T16:53:23;27.20;;;9.90;;
33148;SDS011;19506;51.040;3.856;2023-08-06T16:55:49;28.20;;;11.68;;
33148;SDS011;19506;51.040;3.856;2023-08-06T16:58:15;35.58;;;12.40;;
33148;SDS011;19506;51.040;3.856;2023-08-06T17:00:44;57.03;;;17.50;;
33148;SDS011;19506;51.040;3.856;2023-08-06T17:03:11;79.32;;;25.77;;
33148;SDS011;19506;51.040;3.856;2023-08-06T17:05:37;164.27;;;44.65;;
33148;SDS011;19506;51.040;3.856;2023-08-06T17:08:03;190.45;;;58.22;;
33148;SDS011;19506;51.040;3.856;2023-08-06T17:10:32;228.45;;;73.25;;
33148;SDS011;19506;51.040;3.856;2023-08-06T17:12:58;208.52;;;67.97;;
33148;SDS011;19506;51.040;3.856;2023-08-06T17:15:28;207.95;;;69.88;;
33148;SDS011;19506;51.040;3.856;2023-08-06T17:17:54;265.50;;;87.28;;
33148;SDS011;19506;51.040;3.856;2023-08-06T17:20:20;219.13;;;74.72;;
33148;SDS011;19506;51.040;3.856;2023-08-06T17:22:47;268.55;;;89.15;;
33148;SDS011;19506;51.040;3.856;2023-08-06T17:25:12;286.33;;;92.00;;
33148;SDS011;19506;51.040;3.856;2023-08-06T17:27:38;285.08;;;93.95;;
33148;SDS011;19506;51.040;3.856;2023-08-06T17:30:04;254.80;;;87.38;;
33148;SDS011;19506;51.040;3.856;2023-08-06T17:32:31;252.48;;;85.93;;
33148;SDS011;19506;51.040;3.856;2023-08-06T17:34:57;246.15;;;85.60;;
33148;SDS011;19506;51.040;3.856;2023-08-06T17:37:22;249.38;;;88.05;;
33148;SDS011;19506;51.040;3.856;2023-08-06T17:39:48;251.85;;;88.88;;
33148;SDS011;19506;51.040;3.856;2023-08-06T17:42:14;265.10;;;91.90;;
33148;SDS011;19506;51.040;3.856;2023-08-06T17:44:40;266.05;;;96.35;;
33148;SDS011;19506;51.040;3.856;2023-08-06T17:47:06;285.45;;;96.75;;
33148;SDS011;19506;51.040;3.856;2023-08-06T17:49:32;261.25;;;95.57;;
33148;SDS011;19506;51.040;3.856;2023-08-06T17:51:58;262.95;;;94.97;;
33148;SDS011;19506;51.040;3.856;2023-08-06T17:54:23;256.70;;;92.30;;
33148;SDS011;19506;51.040;3.856;2023-08-06T17:56:50;246.40;;;96.30;;
33148;SDS011;19506;51.040;3.856;2023-08-06T17:59:18;271.77;;;92.50;;
33148;SDS011;19506;51.040;3.856;2023-08-06T18:01:44;264.30;;;90.93;;
33148;SDS011;19506;51.040;3.856;2023-08-06T18:04:10;264.65;;;91.45;;
33148;SDS011;19506;51.040;3.856;2023-08-06T18:06:36;228.25;;;85.78;;
33148;SDS011;19506;51.040;3.856;2023-08-06T18:09:02;251.85;;;89.10;;
33148;SDS011;19506;51.040;3.856;2023-08-06T18:11:28;245.02;;;87.38;;
33148;SDS011;19506;51.040;3.856;2023-08-06T18:13:54;241.57;;;87.38;;
33148;SDS011;19506;51.040;3.856;2023-08-06T18:16:20;254.10;;;91.57;;
33148;SDS011;19506;51.040;3.856;2023-08-06T18:18:45;214.52;;;86.50;;
33148;SDS011;19506;51.040;3.856;2023-08-06T18:21:11;232.60;;;86.88;;
33148;SDS011;19506;51.040;3.856;2023-08-06T18:23:37;239.10;;;85.97;;
33148;SDS011;19506;51.040;3.856;2023-08-06T18:26:03;235.18;;;88.75;;
33148;SDS011;19506;51.040;3.856;2023-08-06T18:28:29;231.27;;;83.68;;
33148;SDS011;19506;51.040;3.856;2023-08-06T18:30:55;214.55;;;82.20;;
33148;SDS011;19506;51.040;3.856;2023-08-06T18:33:21;210.98;;;80.35;;
33148;SDS011;19506;51.040;3.856;2023-08-06T18:35:47;210.45;;;80.03;;
33148;SDS011;19506;51.040;3.856;2023-08-06T18:38:13;213.10;;;79.57;;
33148;SDS011;19506;51.040;3.856;2023-08-06T18:40:39;200.60;;;74.68;;
33148;SDS011;19506;51.040;3.856;2023-08-06T18:43:04;195.93;;;75.57;;
33148;SDS011;19506;51.040;3.856;2023-08-06T18:45:30;190.68;;;74.18;;
33148;SDS011;19506;51.040;3.856;2023-08-06T18:48:04;189.30;;;73.30;;
33148;SDS011;19506;51.040;3.856;2023-08-06T18:50:32;199.48;;;72.38;;
33148;SDS011;19506;51.040;3.856;2023-08-06T18:53:02;173.73;;;71.35;;
33148;SDS011;19506;51.040;3.856;2023-08-06T18:55:31;177.70;;;72.10;;
33148;SDS011;19506;51.040;3.856;2023-08-06T18:58:00;184.30;;;69.85;;
33148;SDS011;19506;51.040;3.856;2023-08-06T19:00:28;166.77;;;65.18;;
33148;SDS011;19506;51.040;3.856;2023-08-06T19:02:54;168.43;;;66.25;;
33148;SDS011;19506;51.040;3.856;2023-08-06T19:05:20;160.98;;;66.43;;
33148;SDS011;19506;51.040;3.856;2023-08-06T19:07:46;174.55;;;63.40;;
33148;SDS011;19506;51.040;3.856;2023-08-06T19:10:11;162.82;;;62.92;;
33148;SDS011;19506;51.040;3.856;2023-08-06T19:12:37;169.23;;;61.13;;
33148;SDS011;19506;51.040;3.856;2023-08-06T19:15:03;163.73;;;61.47;;
33148;SDS011;19506;51.040;3.856;2023-08-06T19:17:29;144.43;;;57.97;;
33148;SDS011;19506;51.040;3.856;2023-08-06T19:19:54;147.10;;;56.58;;
33148;SDS011;19506;51.040;3.856;2023-08-06T19:22:20;151.85;;;59.88;;
33148;SDS011;19506;51.040;3.856;2023-08-06T19:24:46;159.80;;;55.97;;
33148;SDS011;19506;51.040;3.856;2023-08-06T19:27:11;140.63;;;54.10;;
33148;SDS011;19506;51.040;3.856;2023-08-06T19:29:37;157.60;;;56.28;;
33148;SDS011;19506;51.040;3.856;2023-08-06T19:32:04;141.75;;;54.47;;
33148;SDS011;19506;51.040;3.856;2023-08-06T19:34:31;129.07;;;52.85;;
33148;SDS011;19506;51.040;3.856;2023-08-06T19:36:57;127.95;;;49.65;;
33148;SDS011;19506;51.040;3.856;2023-08-06T19:39:23;133.65;;;51.03;;
33148;SDS011;19506;51.040;3.856;2023-08-06T19:41:48;126.40;;;49.88;;
33148;SDS011;19506;51.040;3.856;2023-08-06T19:44:14;117.70;;;46.28;;
33148;SDS011;19506;51.040;3.856;2023-08-06T19:46:40;126.32;;;46.33;;
33148;SDS011;19506;51.040;3.856;2023-08-06T19:49:05;118.85;;;46.78;;
33148;SDS011;19506;51.040;3.856;2023-08-06T19:51:31;122.75;;;47.25;;
33148;SDS011;19506;51.040;3.856;2023-08-06T19:53:56;117.75;;;47.88;;
33148;SDS011;19506;51.040;3.856;2023-08-06T19:56:22;112.88;;;43.53;;
33148;SDS011;19506;51.040;3.856;2023-08-06T19:58:48;125.55;;;44.97;;
33148;SDS011;19506;51.040;3.856;2023-08-06T20:01:14;122.53;;;45.20;;
33148;SDS011;19506;51.040;3.856;2023-08-06T20:03:40;112.20;;;44.65;;
33148;SDS011;19506;51.040;3.856;2023-08-06T20:06:08;99.75;;;39.70;;
33148;SDS011;19506;51.040;3.856;2023-08-06T20:08:34;108.95;;;40.90;;
33148;SDS011;19506;51.040;3.856;2023-08-06T20:11:01;97.68;;;41.97;;
33148;SDS011;19506;51.040;3.856;2023-08-06T20:13:28;102.85;;;40.78;;
33148;SDS011;19506;51.040;3.856;2023-08-06T20:15:54;114.45;;;38.47;;
33148;SDS011;19506;51.040;3.856;2023-08-06T20:18:20;88.35;;;37.42;;
33148;SDS011;19506;51.040;3.856;2023-08-06T20:20:50;103.45;;;39.55;;
33148;SDS011;19506;51.040;3.856;2023-08-06T20:23:15;100.95;;;38.10;;
33148;SDS011;19506;51.040;3.856;2023-08-06T20:25:41;98.55;;;39.28;;
33148;SDS011;19506;51.040;3.856;2023-08-06T20:28:07;95.65;;;36.70;;
33148;SDS011;19506;51.040;3.856;2023-08-06T20:30:33;99.45;;;37.85;;
33148;SDS011;19506;51.040;3.856;2023-08-06T20:32:59;86.72;;;34.92;;